Time;durP1;ratioP1;P1;durP2;ratioP2;P2;SDS_P1;SDS_P2;PMS_P1;PMS_P2;Temp;Humidity;BMP_temperature;BMP_pressure;BME280_temperature;BME280_humidity;BME280_pressure;Samples;Min_cycle;Max_cycle;Signal;HPM_P1;HPM_P2
2023/12/18 00:00:53;;;;;;;4.03;3.70;;;1.60;99.90;;;;;;5024768;28;20034;-76
2023/12/18 00:03:19;;;;;;;20.08;4.78;;;1.60;99.90;;;;;;5030316;28;20467;-77
2023/12/18 00:05:45;;;;;;;3.80;2.83;;;1.60;99.90;;;;;;5036946;28;20034;-76
2023/12/18 00:08:11;;;;;;;2.60;2.40;;;1.60;99.90;;;;;;5033548;28;20402;-77
2023/12/18 00:10:37;;;;;;;4.72;3.72;;;1.60;99.90;;;;;;5028584;28;20447;-76
2023/12/18 00:13:05;;;;;;;2.85;2.00;;;1.60;99.90;;;;;;5031164;28;20514;-77
2023/12/18 00:15:31;;;;;;;2.53;2.33;;;1.60;99.90;;;;;;5029660;28;20041;-77
2023/12/18 00:17:58;;;;;;;5.43;4.85;;;1.60;99.90;;;;;;5037884;28;20521;-78
2023/12/18 00:20:24;;;;;;;5.78;2.45;;;1.60;99.90;;;;;;5031453;28;20053;-77
2023/12/18 00:22:50;;;;;;;16.35;5.28;;;1.60;99.90;;;;;;5028851;28;20034;-77
2023/12/18 00:25:16;;;;;;;5.43;3.58;;;1.60;99.90;;;;;;5029163;28;20045;-76
2023/12/18 00:27:42;;;;;;;8.65;4.53;;;1.60;99.90;;;;;;5027321;28;20038;-77
2023/12/18 00:30:09;;;;;;;1.80;1.70;;;1.60;99.90;;;;;;5035552;28;20139;-76
2023/12/18 00:32:35;;;;;;;4.45;4.05;;;1.60;99.90;;;;;;5027943;28;20319;-76
2023/12/18 00:35:01;;;;;;;4.35;3.92;;;1.60;99.90;;;;;;5027745;28;20036;-76
2023/12/18 00:37:27;;;;;;;5.35;4.95;;;1.60;99.90;;;;;;5027489;28;20486;-77
2023/12/18 00:39:53;;;;;;;5.60;4.20;;;1.70;99.90;;;;;;5032400;28;20033;-76
2023/12/18 00:42:20;;;;;;;4.97;4.45;;;1.70;99.90;;;;;;5027452;28;20029;-77
2023/12/18 00:44:46;;;;;;;5.00;4.50;;;1.70;99.90;;;;;;5032311;28;20390;-76
2023/12/18 00:47:12;;;;;;;8.23;6.10;;;1.70;99.90;;;;;;5031073;28;20056;-76
2023/12/18 00:49:38;;;;;;;5.05;3.90;;;1.70;99.90;;;;;;5033706;28;20037;-76
2023/12/18 00:52:04;;;;;;;7.30;5.43;;;1.70;99.90;;;;;;5030023;28;20033;-77
2023/12/18 00:54:31;;;;;;;3.25;2.90;;;1.80;99.90;;;;;;5030311;28;20037;-76
2023/12/18 00:56:57;;;;;;;6.80;4.60;;;1.80;99.90;;;;;;5028151;28;20037;-76
2023/12/18 00:59:23;;;;;;;6.38;4.25;;;1.80;99.90;;;;;;5031061;28;20121;-77
2023/12/18 01:01:49;;;;;;;7.45;4.18;;;1.80;99.90;;;;;;5039166;28;20418;-76
2023/12/18 01:04:15;;;;;;;2.63;2.45;;;1.80;99.90;;;;;;5034945;28;20041;-76
2023/12/18 01:06:42;;;;;;;5.55;3.08;;;1.80;99.90;;;;;;5029727;28;20049;-77
2023/12/18 01:09:08;;;;;;;4.40;3.40;;;1.80;99.90;;;;;;5030790;28;20044;-76
2023/12/18 01:11:34;;;;;;;4.70;1.98;;;1.80;99.90;;;;;;5034448;28;20042;-76
2023/12/18 01:14:01;;;;;;;4.97;4.07;;;1.80;99.90;;;;;;5032488;28;20029;-76
2023/12/18 01:16:27;;;;;;;3.85;3.50;;;1.80;99.90;;;;;;5035234;28;20033;-76
2023/12/18 01:18:53;;;;;;;5.68;5.15;;;1.80;99.90;;;;;;5028332;28;20041;-76
2023/12/18 01:21:19;;;;;;;7.13;5.40;;;1.80;99.90;;;;;;5035939;28;20041;-76
2023/12/18 01:23:45;;;;;;;7.03;6.10;;;1.80;99.90;;;;;;5033463;28;20056;-76
2023/12/18 01:26:11;;;;;;;5.85;5.35;;;1.80;99.90;;;;;;5047391;28;20401;-76
2023/12/18 01:28:40;;;;;;;3.83;3.28;;;1.80;99.90;;;;;;5027900;28;20057;-76
2023/12/18 01:31:07;;;;;;;5.43;4.93;;;1.80;99.90;;;;;;5033929;28;20072;-74
2023/12/18 01:33:34;;;;;;;5.25;4.85;;;1.80;99.90;;;;;;5033407;28;20478;-76
2023/12/18 01:36:00;;;;;;;3.45;3.08;;;1.80;99.90;;;;;;5038552;28;20467;-76
2023/12/18 01:38:26;;;;;;;5.07;4.68;;;1.80;99.90;;;;;;5026732;28;20044;-77
2023/12/18 01:40:52;;;;;;;12.52;4.97;;;1.80;99.90;;;;;;5026730;28;20052;-76
2023/12/18 01:43:25;;;;;;;7.18;6.55;;;1.80;99.90;;;;;;5034084;28;20048;-76
2023/12/18 01:46:00;;;;;;;9.02;7.55;;;1.80;99.90;;;;;;5035934;28;20048;-75
2023/12/18 01:48:28;;;;;;;5.22;4.82;;;1.80;99.90;;;;;;5032239;28;20402;-77
2023/12/18 01:50:56;;;;;;;7.70;4.53;;;1.90;99.90;;;;;;5028217;28;20029;-76
2023/12/18 01:53:36;;;;;;;7.53;4.45;;;1.90;99.90;;;;;;5035907;28;20033;-76
2023/12/18 01:56:03;;;;;;;3.58;3.28;;;1.90;99.90;;;;;;5033352;28;20029;-75
2023/12/18 01:58:33;;;;;;;3.70;3.35;;;1.90;99.90;;;;;;5034928;28;20033;-76
2023/12/18 02:01:00;;;;;;;4.88;4.45;;;1.90;99.90;;;;;;5031764;28;20140;-75
2023/12/18 02:03:28;;;;;;;9.35;5.93;;;1.90;99.90;;;;;;5033009;28;20033;-76
2023/12/18 02:05:58;;;;;;;7.80;4.78;;;1.90;99.90;;;;;;5030798;28;20037;-76
2023/12/18 02:08:25;;;;;;;19.83;3.47;;;1.90;99.90;;;;;;5031211;28;20049;-76
2023/12/18 02:10:53;;;;;;;3.05;2.55;;;1.90;99.90;;;;;;5026455;28;20041;-75
2023/12/18 02:13:19;;;;;;;3.30;3.10;;;1.90;99.90;;;;;;5027920;28;20033;-76
2023/12/18 02:15:45;;;;;;;2.45;2.17;;;1.90;99.90;;;;;;5035460;28;20045;-77
2023/12/18 02:18:11;;;;;;;4.22;3.92;;;1.90;99.90;;;;;;5041953;28;20041;-76
2023/12/18 02:20:41;;;;;;;5.20;3.97;;;1.90;99.90;;;;;;5043732;28;20805;-76
2023/12/18 02:23:08;;;;;;;2.97;2.75;;;1.90;99.90;;;;;;5023489;28;20371;-76
2023/12/18 02:25:35;;;;;;;3.25;2.97;;;2.00;99.90;;;;;;5024626;28;20037;-76
2023/12/18 02:28:02;;;;;;;5.15;4.60;;;2.00;99.90;;;;;;5032217;28;20034;-76
2023/12/18 02:30:28;;;;;;;4.93;3.70;;;2.00;99.90;;;;;;5036672;28;20046;-76
2023/12/18 02:32:54;;;;;;;5.32;4.82;;;2.00;99.90;;;;;;5029304;28;20029;-76
2023/12/18 02:35:21;;;;;;;4.45;4.03;;;2.00;99.90;;;;;;5039717;28;20025;-76
2023/12/18 02:37:47;;;;;;;5.45;4.57;;;2.00;99.90;;;;;;5034881;28;20621;-76
2023/12/18 02:40:13;;;;;;;5.03;4.38;;;2.00;99.90;;;;;;5035920;28;20029;-75
2023/12/18 02:42:39;;;;;;;13.65;3.60;;;2.10;99.90;;;;;;5027602;28;20355;-76
2023/12/18 02:45:06;;;;;;;2.10;1.98;;;2.10;99.90;;;;;;5029066;28;20033;-76
2023/12/18 02:47:32;;;;;;;3.28;2.40;;;2.10;99.90;;;;;;5032809;28;20052;-76
2023/12/18 02:49:58;;;;;;;4.97;4.50;;;2.10;99.90;;;;;;5034880;28;20029;-76
2023/12/18 02:52:24;;;;;;;4.28;3.38;;;2.10;99.90;;;;;;5037109;28;20378;-76
2023/12/18 02:54:51;;;;;;;4.03;3.70;;;2.10;99.90;;;;;;5025216;28;20041;-76
2023/12/18 02:57:17;;;;;;;8.13;6.00;;;2.10;99.90;;;;;;5037405;28;20033;-75
2023/12/18 02:59:43;;;;;;;3.50;3.25;;;2.10;99.90;;;;;;5030131;28;20422;-76
2023/12/18 03:02:09;;;;;;;3.03;2.75;;;2.10;99.90;;;;;;5035568;28;20026;-76
2023/12/18 03:04:41;;;;;;;6.90;3.90;;;2.10;99.90;;;;;;5030034;28;20029;-76
2023/12/18 03:07:11;;;;;;;4.10;3.80;;;2.10;99.90;;;;;;5029560;28;20037;-76
2023/12/18 03:09:37;;;;;;;4.05;3.70;;;2.10;99.90;;;;;;5033265;28;20355;-76
2023/12/18 03:12:04;;;;;;;14.95;6.45;;;2.10;99.90;;;;;;5033639;28;20049;-76
2023/12/18 03:14:31;;;;;;;5.47;4.95;;;2.10;99.90;;;;;;5025529;28;20026;-77
2023/12/18 03:16:57;;;;;;;3.92;1.92;;;2.20;99.90;;;;;;5027585;28;20045;-76
2023/12/18 03:19:23;;;;;;;6.93;5.85;;;2.20;99.90;;;;;;5032186;28;20340;-76
2023/12/18 03:21:49;;;;;;;6.03;4.07;;;2.10;99.90;;;;;;5032171;28;20831;-76
2023/12/18 03:24:15;;;;;;;10.52;5.88;;;2.20;99.90;;;;;;5034937;28;20034;-76
2023/12/18 03:26:41;;;;;;;3.38;2.95;;;2.20;99.90;;;;;;5026379;28;20034;-76
2023/12/18 03:29:07;;;;;;;4.53;4.13;;;2.20;99.90;;;;;;5029391;28;20045;-76
2023/12/18 03:31:33;;;;;;;5.03;4.50;;;2.20;99.90;;;;;;5030896;28;20033;-77
2023/12/18 03:34:00;;;;;;;5.18;4.70;;;2.10;99.90;;;;;;5035468;28;20469;-76
2023/12/18 03:36:26;;;;;;;2.70;2.50;;;2.20;99.90;;;;;;5030598;28;20039;-75
2023/12/18 03:38:52;;;;;;;3.33;3.03;;;2.10;99.90;;;;;;5029107;28;20040;-76
2023/12/18 03:41:18;;;;;;;4.72;3.03;;;2.20;99.90;;;;;;5045137;28;20041;-77
2023/12/18 03:43:44;;;;;;;3.47;3.17;;;2.10;99.90;;;;;;5033346;28;20036;-77
2023/12/18 03:46:10;;;;;;;6.22;4.43;;;2.20;99.90;;;;;;5033881;28;20462;-76
2023/12/18 03:48:36;;;;;;;5.70;2.72;;;2.20;99.90;;;;;;5030274;28;20477;-76
2023/12/18 03:51:03;;;;;;;2.08;1.92;;;2.20;99.90;;;;;;5029444;28;20041;-76
2023/12/18 03:53:29;;;;;;;9.60;3.78;;;2.20;99.90;;;;;;5032784;28;20033;-76
2023/12/18 03:55:55;;;;;;;4.82;4.43;;;2.20;99.90;;;;;;5028695;28;20060;-76
2023/12/18 03:58:21;;;;;;;3.65;3.33;;;2.20;99.90;;;;;;5031424;28;20048;-76
2023/12/18 04:00:48;;;;;;;3.78;3.40;;;2.20;99.90;;;;;;5029919;28;20459;-76
2023/12/18 04:03:14;;;;;;;3.50;3.22;;;2.20;99.90;;;;;;5033873;28;20029;-76
2023/12/18 04:05:40;;;;;;;4.43;3.55;;;2.20;99.90;;;;;;5035837;28;20049;-77
2023/12/18 04:08:06;;;;;;;2.50;2.40;;;2.20;99.90;;;;;;5029116;28;20037;-76
2023/12/18 04:10:32;;;;;;;4.50;4.20;;;2.20;99.90;;;;;;5024464;28;20053;-78
2023/12/18 04:12:58;;;;;;;7.88;4.05;;;2.20;99.90;;;;;;5031011;28;20034;-76
2023/12/18 04:15:26;;;;;;;12.88;5.15;;;2.20;99.90;;;;;;5032959;28;20021;-76
2023/12/18 04:17:55;;;;;;;4.85;4.55;;;2.20;99.90;;;;;;5028995;28;20053;-76
2023/12/18 04:20:21;;;;;;;2.40;2.28;;;2.20;99.90;;;;;;5028676;28;20045;-76
2023/12/18 04:22:47;;;;;;;8.70;7.82;;;2.20;99.90;;;;;;5029175;28;20056;-76
2023/12/18 04:25:14;;;;;;;4.32;4.03;;;2.10;99.90;;;;;;5033408;28;20327;-76
2023/12/18 04:27:40;;;;;;;4.07;3.20;;;2.10;99.90;;;;;;5028866;28;20463;-77
2023/12/18 04:30:07;;;;;;;10.38;5.03;;;2.10;99.90;;;;;;5040814;28;20034;-76
2023/12/18 04:32:33;;;;;;;7.80;6.75;;;2.10;99.90;;;;;;5027178;28;20390;-77
2023/12/18 04:35:00;;;;;;;7.70;6.18;;;2.00;99.90;;;;;;5046769;28;20029;-77
2023/12/18 04:37:26;;;;;;;3.55;3.25;;;2.00;99.90;;;;;;5030125;28;20383;-76
2023/12/18 04:39:52;;;;;;;1.42;1.35;;;2.00;99.90;;;;;;5032574;28;20033;-76
2023/12/18 04:42:18;;;;;;;4.85;4.53;;;1.90;99.90;;;;;;5025725;28;20040;-76
2023/12/18 04:44:44;;;;;;;3.28;2.45;;;2.00;99.90;;;;;;5028124;28;20037;-77
2023/12/18 04:47:11;;;;;;;10.60;4.72;;;1.90;99.90;;;;;;5030489;28;20494;-76
2023/12/18 04:49:37;;;;;;;16.35;14.68;;;1.90;99.90;;;;;;5034167;28;20030;-76
2023/12/18 04:52:03;;;;;;;12.50;10.90;;;1.90;99.90;;;;;;5028214;28;20022;-76
2023/12/18 04:54:29;;;;;;;7.75;7.20;;;1.90;99.90;;;;;;5029541;28;20044;-75
2023/12/18 04:56:56;;;;;;;5.38;4.82;;;1.90;99.90;;;;;;5027848;28;20030;-75
2023/12/18 04:59:22;;;;;;;5.38;3.30;;;1.90;99.90;;;;;;5032078;28;20038;-76
2023/12/18 05:01:48;;;;;;;3.85;3.55;;;1.90;99.90;;;;;;5034140;28;20042;-76
2023/12/18 05:04:14;;;;;;;2.20;1.58;;;1.90;99.90;;;;;;5026551;28;20026;-76
2023/12/18 05:06:41;;;;;;;2.67;2.50;;;1.90;99.90;;;;;;5028636;28;20029;-76
2023/12/18 05:09:07;;;;;;;3.53;3.22;;;1.80;99.90;;;;;;5030457;28;20033;-76
2023/12/18 05:11:33;;;;;;;10.02;5.65;;;1.90;99.90;;;;;;5032712;28;20033;-78
2023/12/18 05:13:59;;;;;;;7.68;4.63;;;1.90;99.90;;;;;;5022278;28;20036;-75
2023/12/18 05:16:25;;;;;;;3.38;3.17;;;1.80;99.90;;;;;;5044164;28;20042;-75
2023/12/18 05:18:53;;;;;;;3.75;2.88;;;1.80;99.90;;;;;;5027046;28;20040;-75
2023/12/18 05:21:19;;;;;;;7.45;2.30;;;1.80;99.90;;;;;;5036796;28;20045;-75
2023/12/18 05:23:47;;;;;;;7.40;3.08;;;1.90;99.90;;;;;;5030809;28;20049;-75
2023/12/18 05:26:13;;;;;;;2.30;2.20;;;1.90;99.90;;;;;;5027328;28;20060;-76
2023/12/18 05:28:39;;;;;;;3.95;3.63;;;1.90;99.90;;;;;;5028671;28;20040;-76
2023/12/18 05:31:09;;;;;;;3.38;3.13;;;1.80;99.90;;;;;;5032727;28;20040;-76
2023/12/18 05:33:36;;;;;;;5.32;2.85;;;1.80;99.90;;;;;;5025319;28;20392;-76
2023/12/18 05:36:02;;;;;;;3.35;3.05;;;1.80;99.90;;;;;;5025089;28;20064;-75
2023/12/18 05:38:29;;;;;;;4.82;4.40;;;1.80;99.90;;;;;;5031995;28;20044;-75
2023/12/18 05:40:55;;;;;;;11.68;3.38;;;1.80;99.90;;;;;;5027991;28;20398;-76
2023/12/18 05:43:21;;;;;;;3.08;2.67;;;1.80;99.90;;;;;;5031595;28;20033;-75
2023/12/18 05:45:47;;;;;;;5.20;3.83;;;1.80;99.90;;;;;;5025139;28;20037;-75
2023/12/18 05:48:13;;;;;;;3.45;3.25;;;1.90;99.90;;;;;;5033368;28;20041;-76
2023/12/18 05:50:39;;;;;;;4.88;4.40;;;1.80;99.90;;;;;;5031296;28;20065;-77
2023/12/18 05:53:05;;;;;;;6.65;5.22;;;1.80;99.90;;;;;;5036586;28;20045;-75
2023/12/18 05:55:32;;;;;;;2.22;2.08;;;1.80;99.90;;;;;;5029652;28;20037;-76
2023/12/18 05:57:58;;;;;;;1.67;1.50;;;1.80;99.90;;;;;;5030967;28;20034;-76
2023/12/18 06:00:24;;;;;;;4.10;2.05;;;1.80;99.90;;;;;;5035319;28;20029;-76
2023/12/18 06:02:50;;;;;;;4.38;3.60;;;1.80;99.90;;;;;;5036425;28;20033;-76
2023/12/18 06:05:16;;;;;;;4.40;3.50;;;1.80;99.90;;;;;;5025024;28;20033;-76
2023/12/18 06:07:43;;;;;;;3.33;1.30;;;1.70;99.90;;;;;;5031502;28;20041;-76
2023/12/18 06:10:09;;;;;;;4.38;3.97;;;1.70;99.90;;;;;;5032117;28;20044;-76
2023/12/18 06:12:36;;;;;;;3.20;2.92;;;1.80;99.90;;;;;;5034729;28;20038;-76
2023/12/18 06:15:06;;;;;;;4.05;2.38;;;1.70;99.90;;;;;;5031215;28;20040;-76
2023/12/18 06:17:32;;;;;;;2.08;1.98;;;1.70;99.90;;;;;;5025045;28;20037;-76
2023/12/18 06:19:59;;;;;;;3.70;3.22;;;1.70;99.90;;;;;;5029589;28;20073;-76
2023/12/18 06:22:25;;;;;;;3.22;2.97;;;1.70;99.90;;;;;;5033748;28;20060;-76
2023/12/18 06:24:51;;;;;;;12.45;6.30;;;1.70;99.90;;;;;;5029759;28;20037;-77
2023/12/18 06:27:17;;;;;;;6.78;3.95;;;1.70;99.90;;;;;;5028702;28;20052;-76
2023/12/18 06:29:43;;;;;;;17.95;5.95;;;1.70;99.90;;;;;;5027473;28;20045;-76
2023/12/18 06:32:10;;;;;;;3.80;3.50;;;1.70;99.90;;;;;;5033578;28;20029;-76
2023/12/18 06:34:36;;;;;;;6.15;3.33;;;1.70;99.90;;;;;;5044159;28;20042;-76
2023/12/18 06:37:02;;;;;;;8.43;5.88;;;1.70;99.90;;;;;;5025932;28;20021;-80
2023/12/18 06:39:28;;;;;;;4.60;4.18;;;1.70;99.90;;;;;;5036100;28;20037;-76
2023/12/18 06:41:55;;;;;;;3.17;2.97;;;1.60;99.90;;;;;;5029922;28;20025;-76
2023/12/18 06:44:21;;;;;;;2.70;2.50;;;1.60;99.90;;;;;;5034264;28;20049;-76
2023/12/18 06:46:48;;;;;;;7.57;3.90;;;1.60;99.90;;;;;;5029477;28;20033;-76
2023/12/18 06:49:14;;;;;;;5.97;5.47;;;1.60;99.90;;;;;;5035901;28;20036;-76
2023/12/18 06:51:40;;;;;;;4.40;2.95;;;1.60;99.90;;;;;;5023712;28;20459;-76
2023/12/18 06:54:06;;;;;;;3.30;3.10;;;1.60;99.90;;;;;;5036337;28;20037;-76
2023/12/18 06:56:32;;;;;;;4.00;3.40;;;1.60;99.90;;;;;;5032300;28;20036;-76
2023/12/18 06:58:58;;;;;;;5.80;4.85;;;1.60;99.90;;;;;;5032950;28;20060;-76
2023/12/18 07:01:25;;;;;;;11.85;4.22;;;1.60;99.90;;;;;;5030104;28;20041;-76
2023/12/18 07:03:51;;;;;;;4.88;4.20;;;1.60;99.90;;;;;;5031102;28;20041;-76
2023/12/18 07:06:17;;;;;;;6.28;3.80;;;1.60;99.90;;;;;;5040904;28;20060;-76
2023/12/18 07:08:43;;;;;;;8.85;4.00;;;1.50;99.90;;;;;;5032580;28;20044;-76
2023/12/18 07:11:09;;;;;;;5.85;3.90;;;1.60;99.90;;;;;;5030914;28;20033;-76
2023/12/18 07:13:35;;;;;;;3.00;2.72;;;1.60;99.90;;;;;;5031204;28;20394;-76
2023/12/18 07:16:02;;;;;;;7.55;6.85;;;1.60;99.90;;;;;;5031413;28;20029;-76
2023/12/18 07:18:28;;;;;;;8.73;5.35;;;1.50;99.90;;;;;;5032863;28;20041;-76
2023/12/18 07:20:55;;;;;;;6.18;3.88;;;1.50;99.90;;;;;;5033895;28;20046;-75
2023/12/18 07:23:21;;;;;;;6.38;4.68;;;1.50;99.90;;;;;;5027159;28;20045;-75
2023/12/18 07:25:47;;;;;;;5.57;4.28;;;1.50;99.90;;;;;;5028685;28;20030;-75
2023/12/18 07:28:13;;;;;;;3.20;2.80;;;1.60;99.90;;;;;;5028505;28;20050;-76
2023/12/18 07:30:39;;;;;;;6.15;2.78;;;1.50;99.90;;;;;;5049685;28;20034;-75
2023/12/18 07:33:06;;;;;;;4.35;3.97;;;1.50;99.90;;;;;;5033049;28;20037;-75
2023/12/18 07:35:32;;;;;;;4.65;4.25;;;1.60;99.90;;;;;;5030463;28;20051;-75
2023/12/18 07:37:58;;;;;;;3.75;3.45;;;1.60;99.90;;;;;;5030076;28;20034;-75
2023/12/18 07:40:24;;;;;;;3.55;2.45;;;1.60;99.90;;;;;;5029279;28;20040;-76
2023/12/18 07:42:50;;;;;;;4.47;4.10;;;1.60;99.90;;;;;;5028349;28;20041;-76
2023/12/18 07:45:17;;;;;;;3.75;2.50;;;1.60;99.90;;;;;;5026798;28;20041;-76
2023/12/18 07:47:43;;;;;;;2.35;2.05;;;1.60;99.90;;;;;;5034385;28;20389;-76
2023/12/18 07:50:10;;;;;;;6.03;3.75;;;1.50;99.90;;;;;;5032030;28;20040;-75
2023/12/18 07:52:36;;;;;;;3.42;3.22;;;1.60;99.90;;;;;;5048168;28;20060;-74
2023/12/18 07:55:02;;;;;;;4.18;3.78;;;1.60;99.90;;;;;;5028985;28;20033;-75
2023/12/18 07:57:29;;;;;;;4.15;3.90;;;1.60;99.90;;;;;;5031712;28;20037;-75
2023/12/18 07:59:55;;;;;;;2.50;2.35;;;1.50;99.90;;;;;;5028374;28;20030;-75
2023/12/18 08:02:21;;;;;;;12.52;11.40;;;1.50;99.90;;;;;;5034398;28;20025;-76
2023/12/18 08:04:47;;;;;;;6.47;5.85;;;1.50;99.90;;;;;;5025747;28;20041;-75
2023/12/18 08:07:13;;;;;;;7.32;6.63;;;1.50;99.90;;;;;;5029632;28;20037;-76
2023/12/18 08:09:41;;;;;;;3.50;3.28;;;1.50;99.90;;;;;;5033956;28;20044;-74
2023/12/18 08:12:08;;;;;;;4.93;2.97;;;1.50;99.90;;;;;;5031841;28;20467;-76
2023/12/18 08:14:34;;;;;;;4.85;4.43;;;1.50;99.90;;;;;;5023086;28;20057;-75
2023/12/18 08:17:00;;;;;;;3.47;3.17;;;1.50;99.90;;;;;;5029748;28;20025;-76
2023/12/18 08:19:26;;;;;;;5.47;5.03;;;1.50;99.90;;;;;;5028817;28;20033;-75
2023/12/18 08:21:52;;;;;;;2.88;2.67;;;1.50;99.90;;;;;;5030030;28;20061;-75
2023/12/18 08:24:20;;;;;;;1.88;1.73;;;1.60;99.90;;;;;;5031061;28;20041;-76
2023/12/18 08:26:48;;;;;;;3.13;2.92;;;1.60;99.90;;;;;;5028138;28;20033;-75
2023/12/18 08:29:15;;;;;;;11.70;4.53;;;1.60;99.90;;;;;;5029267;28;20034;-75
2023/12/18 08:31:42;;;;;;;4.45;3.25;;;1.60;99.90;;;;;;5026998;28;20053;-76
2023/12/18 08:34:09;;;;;;;3.20;2.22;;;1.70;99.90;;;;;;5032421;28;20036;-75
2023/12/18 08:36:36;;;;;;;6.95;3.85;;;1.70;99.90;;;;;;5027741;28;20041;-75
2023/12/18 08:39:03;;;;;;;8.05;4.18;;;1.70;99.90;;;;;;5028127;28;20033;-74
2023/12/18 08:41:29;;;;;;;5.72;2.83;;;1.70;99.90;;;;;;5033363;28;20362;-75
2023/12/18 08:43:55;;;;;;;4.18;3.38;;;1.70;99.90;;;;;;5033786;28;20473;-74
2023/12/18 08:46:21;;;;;;;12.60;6.28;;;1.70;99.90;;;;;;5032174;28;20025;-74
2023/12/18 08:48:48;;;;;;;5.05;3.75;;;1.70;99.90;;;;;;5030910;28;20041;-75
2023/12/18 08:51:15;;;;;;;5.82;3.88;;;1.70;99.90;;;;;;5029985;28;20048;-75
2023/12/18 08:53:42;;;;;;;2.22;2.05;;;1.80;99.90;;;;;;5031082;28;20030;-75
2023/12/18 08:56:08;;;;;;;5.30;4.05;;;1.80;99.90;;;;;;5030156;28;20492;-75
2023/12/18 08:58:34;;;;;;;12.35;3.53;;;1.80;99.90;;;;;;5029747;28;20040;-76
2023/12/18 09:01:00;;;;;;;6.03;3.38;;;1.80;99.90;;;;;;5029022;28;20022;-75
2023/12/18 09:03:27;;;;;;;6.40;5.05;;;1.80;99.90;;;;;;5029135;28;20396;-75
2023/12/18 09:05:53;;;;;;;4.80;3.15;;;1.80;99.90;;;;;;5029875;28;20030;-75
2023/12/18 09:08:19;;;;;;;3.25;2.63;;;1.80;91.20;;;;;;5033882;28;20041;-75
2023/12/18 09:10:46;;;;;;;6.25;2.58;;;1.80;79.00;;;;;;5029076;28;20034;-78
2023/12/18 09:13:12;;;;;;;6.35;4.50;;;1.80;34.80;;;;;;5031955;28;20052;-76
2023/12/18 09:15:40;;;;;;;4.75;4.05;;;1.80;18.30;;;;;;5032330;28;20390;-75
2023/12/18 09:18:07;;;;;;;4.22;3.45;;;1.80;4.00;;;;;;5023871;28;20026;-76
2023/12/18 09:20:33;;;;;;;4.50;3.63;;;1.90;5.80;;;;;;5027455;28;20049;-76
2023/12/18 09:23:00;;;;;;;2.65;2.50;;;1.90;1.00;;;;;;5031118;28;20049;-76
2023/12/18 09:25:26;;;;;;;4.97;4.57;;;1.90;1.00;;;;;;5046549;28;20470;-77
2023/12/18 09:27:52;;;;;;;2.92;2.72;;;1.90;1.00;;;;;;5033653;28;20029;-77
2023/12/18 09:30:18;;;;;;;5.18;3.95;;;1.90;1.00;;;;;;5038184;28;20104;-76
2023/12/18 09:32:44;;;;;;;2.38;1.77;;;2.00;1.00;;;;;;5036172;28;20386;-76
2023/12/18 09:35:11;;;;;;;4.80;3.88;;;2.00;1.00;;;;;;5037659;28;20379;-76
2023/12/18 09:37:37;;;;;;;6.72;3.17;;;2.00;1.00;;;;;;5036503;28;20029;-77
2023/12/18 09:40:06;;;;;;;7.93;5.50;;;2.00;1.00;;;;;;5037636;28;20037;-76
2023/12/18 09:42:32;;;;;;;6.97;3.60;;;1.90;1.00;;;;;;5033056;28;20026;-76
2023/12/18 09:45:01;;;;;;;4.20;3.80;;;1.90;1.00;;;;;;5034618;28;20471;-77
2023/12/18 09:47:27;;;;;;;3.38;3.08;;;1.90;1.00;;;;;;5037061;28;20044;-77
2023/12/18 09:49:54;;;;;;;2.08;1.98;;;1.80;1.00;;;;;;5035826;28;20037;-77
2023/12/18 09:52:22;;;;;;;3.03;2.80;;;1.80;1.00;;;;;;5033104;28;20048;-76
2023/12/18 09:54:51;;;;;;;18.50;3.22;;;1.90;1.00;;;;;;5032501;28;20060;-79
2023/12/18 09:57:19;;;;;;;3.45;3.13;;;1.90;1.00;;;;;;5038268;28;20100;-76
2023/12/18 09:59:46;;;;;;;7.35;4.85;;;1.90;1.00;;;;;;5035379;28;20056;-77
2023/12/18 10:02:13;;;;;;;12.07;5.93;;;1.90;1.00;;;;;;5040063;28;20390;-76
2023/12/18 10:04:43;;;;;;;3.75;3.42;;;2.00;1.00;;;;;;5028526;28;20025;-77
2023/12/18 10:07:09;;;;;;;7.40;5.78;;;2.00;99.90;;;;;;5027737;28;20364;-76
2023/12/18 10:09:36;;;;;;;3.92;3.63;;;2.00;99.90;;;;;;5037498;28;20026;-77
2023/12/18 10:12:03;;;;;;;5.20;4.22;;;2.00;99.90;;;;;;5027591;28;20030;-76
2023/12/18 10:14:29;;;;;;;5.15;4.38;;;2.00;99.90;;;;;;5029271;28;20459;-76
2023/12/18 10:16:56;;;;;;;2.90;2.70;;;2.00;99.90;;;;;;5040541;28;20038;-79
2023/12/18 10:19:27;;;;;;;2.63;2.42;;;2.00;99.90;;;;;;5026315;28;20041;-77
2023/12/18 10:21:54;;;;;;;;;;;2.00;99.90;;;;;;5036205;28;20525;-77
2023/12/18 10:24:20;;;;;;;6.93;4.35;;;2.10;99.90;;;;;;5050035;28;19913;-76
2023/12/18 10:26:47;;;;;;;3.58;3.35;;;2.20;99.90;;;;;;5027862;28;20049;-77
2023/12/18 10:29:14;;;;;;;2.45;2.35;;;2.30;99.90;;;;;;5029890;28;20465;-76
2023/12/18 10:31:40;;;;;;;3.83;3.50;;;2.40;99.90;;;;;;5034858;28;20056;-76
2023/12/18 10:34:07;;;;;;;3.17;2.92;;;2.50;99.90;;;;;;5034650;28;20034;-76
2023/12/18 10:36:35;;;;;;;4.22;3.95;;;2.60;99.90;;;;;;5027829;28;20033;-76
2023/12/18 10:39:04;;;;;;;3.55;2.78;;;2.60;99.90;;;;;;5032170;28;20037;-76
2023/12/18 10:41:34;;;;;;;2.47;2.28;;;2.70;99.90;;;;;;5030757;28;20036;-75
2023/12/18 10:44:00;;;;;;;1.93;1.83;;;2.70;99.90;;;;;;5029470;28;20033;-76
2023/12/18 10:46:27;;;;;;;8.05;2.97;;;2.80;99.90;;;;;;5029772;28;20280;-76
2023/12/18 10:48:54;;;;;;;5.63;4.45;;;2.80;99.90;;;;;;5037040;28;20498;-76
2023/12/18 10:51:22;;;;;;;6.68;5.03;;;2.80;99.90;;;;;;5031412;28;20482;-77
2023/12/18 10:53:49;;;;;;;3.17;2.97;;;2.80;99.90;;;;;;5041698;28;20038;-75
2023/12/18 10:56:17;;;;;;;2.28;2.13;;;2.90;99.90;;;;;;5035380;28;20052;-76
2023/12/18 10:58:44;;;;;;;3.08;2.63;;;3.00;99.90;;;;;;5026559;28;20033;-76
2023/12/18 11:01:13;;;;;;;4.90;3.60;;;3.10;99.90;;;;;;5032676;28;20151;-76
2023/12/18 11:03:40;;;;;;;4.90;2.83;;;3.10;75.00;;;;;;5032514;28;20394;-76
2023/12/18 11:06:07;;;;;;;3.92;3.67;;;3.00;59.30;;;;;;5033354;28;20033;-77
2023/12/18 11:08:34;;;;;;;4.45;2.78;;;3.00;77.60;;;;;;5028259;28;20034;-76
2023/12/18 11:11:04;;;;;;;3.83;3.53;;;3.00;83.90;;;;;;5032992;28;20032;-76
2023/12/18 11:13:55;;;;;;;1.27;1.17;;;3.00;87.00;;;;;;5029671;28;20045;-76
2023/12/18 11:16:54;;;;;;;;;;;3.10;90.40;;;;;;5014500;28;20052;-76
2023/12/18 11:19:47;;;;;;;0.73;0.73;;;3.10;65.10;;;;;;5003116;28;20251;-76
2023/12/18 11:22:22;;;;;;;12.13;4.50;;;3.10;74.90;;;;;;5029468;28;20383;-76
2023/12/18 11:24:49;;;;;;;11.60;3.92;;;3.10;92.40;;;;;;5039227;28;20048;-76
2023/12/18 11:27:17;;;;;;;2.80;2.60;;;3.20;95.50;;;;;;5032489;28;20044;-76
2023/12/18 11:29:48;;;;;;;2.08;1.95;;;3.30;56.30;;;;;;5029349;28;20038;-76
2023/12/18 11:32:40;;;;;;;6.15;4.50;;;3.50;47.60;;;;;;5048197;28;20048;-77
2023/12/18 11:35:13;;;;;;;3.05;2.85;;;3.70;23.20;;;;;;5013220;28;20041;-77
2023/12/18 11:37:42;;;;;;;3.10;2.90;;;3.80;4.70;;;;;;5043826;28;20041;-78
2023/12/18 11:40:35;;;;;;;1.48;1.38;;;3.90;1.00;;;;;;5024146;28;20033;-77
2023/12/18 11:43:02;;;;;;;3.67;3.30;;;4.00;1.00;;;;;;5030268;28;20033;-77
2023/12/18 11:45:29;;;;;;;4.97;2.97;;;4.10;1.00;;;;;;5031842;28;20463;-78
2023/12/18 11:47:57;;;;;;;3.42;3.15;;;4.20;1.00;;;;;;5033262;28;20034;-77
2023/12/18 11:50:24;;;;;;;2.05;1.92;;;4.20;1.00;;;;;;5019073;28;20049;-76
2023/12/18 11:52:54;;;;;;;1.08;1.08;;;4.30;1.00;;;;;;5029549;28;20033;-76
2023/12/18 11:55:39;;;;;;;2.55;2.17;;;4.40;1.00;;;;;;5038272;28;20057;-78
2023/12/18 11:58:09;;;;;;;3.15;2.92;;;4.50;1.00;;;;;;5022667;28;20049;-76
2023/12/18 12:00:38;;;;;;;2.08;1.98;;;4.60;1.00;;;;;;5037721;28;20040;-76
2023/12/18 12:03:04;;;;;;;1.50;1.40;;;4.70;1.00;;;;;;5031497;28;20502;-76
2023/12/18 12:05:32;;;;;;;4.35;2.15;;;4.70;1.00;;;;;;5032615;28;20029;-77
2023/12/18 12:08:00;;;;;;;5.70;3.50;;;4.80;1.00;;;;;;5026432;28;20040;-77
2023/12/18 12:10:27;;;;;;;1.70;1.60;;;4.90;1.00;;;;;;5036339;28;20412;-77
2023/12/18 12:12:55;;;;;;;1.92;1.65;;;5.00;1.00;;;;;;5026651;28;20033;-79
2023/12/18 12:15:23;;;;;;;2.83;2.22;;;5.00;1.00;;;;;;5031185;28;20029;-77
2023/12/18 12:18:02;;;;;;;4.57;2.95;;;5.10;1.00;;;;;;5042796;28;20459;-77
2023/12/18 12:20:28;;;;;;;2.35;1.40;;;5.10;1.00;;;;;;5033043;28;20486;-75
2023/12/18 12:22:54;;;;;;;4.05;3.33;;;5.20;1.00;;;;;;5029842;28;20045;-77
2023/12/18 12:25:20;;;;;;;3.53;3.25;;;5.20;1.00;;;;;;5030583;28;20036;-76
2023/12/18 12:27:47;;;;;;;1.45;1.38;;;5.30;1.00;;;;;;5033052;28;20056;-77
2023/12/18 12:30:13;;;;;;;5.93;2.45;;;5.40;1.00;;;;;;5029107;28;20037;-77
2023/12/18 12:32:40;;;;;;;1.80;1.70;;;5.50;1.00;;;;;;5029066;28;20042;-77
2023/12/18 12:35:11;;;;;;;3.63;3.08;;;5.50;1.00;;;;;;5026169;28;20489;-76
2023/12/18 12:37:37;;;;;;;2.05;1.83;;;5.50;1.00;;;;;;5030946;28;20493;-77
2023/12/18 12:40:09;;;;;;;2.53;2.38;;;5.60;1.00;;;;;;5030553;28;20033;-77
2023/12/18 12:42:38;;;;;;;2.30;2.00;;;5.70;99.90;;;;;;5036223;28;20057;-76
2023/12/18 12:45:11;;;;;;;2.40;1.85;;;5.80;99.90;;;;;;5024596;28;20049;-77
2023/12/18 12:47:41;;;;;;;2.42;2.22;;;5.80;99.90;;;;;;5024643;28;20034;-76
2023/12/18 12:50:08;;;;;;;1.08;1.08;;;5.90;99.90;;;;;;5028456;28;20037;-77
2023/12/18 12:52:38;;;;;;;1.92;1.50;;;5.90;99.90;;;;;;5034146;28;20045;-77
2023/12/18 12:55:05;;;;;;;3.13;1.73;;;6.00;99.90;;;;;;5029138;28;20067;-77
2023/12/18 12:57:32;;;;;;;3.13;1.88;;;6.10;99.90;;;;;;5011478;28;20048;-82